createdAt,value
2022-08-26T00:01:53.115Z,87.21
2022-08-26T00:04:21.543Z,87.05
2022-08-26T00:06:48.497Z,87.70
2022-08-26T00:09:16.339Z,87.95
2022-08-26T00:11:45.456Z,87.96
2022-08-26T00:14:14.083Z,88.11
2022-08-26T00:16:47.897Z,88.11
2022-08-26T00:19:20.253Z,88.41
2022-08-26T00:21:48.623Z,88.45
2022-08-26T00:24:20.051Z,89.18
2022-08-26T00:26:47.604Z,89.35
2022-08-26T00:29:14.852Z,88.96
2022-08-26T00:31:42.188Z,88.37
2022-08-26T00:34:11.146Z,87.68
2022-08-26T00:36:39.717Z,88.10
2022-08-26T00:39:08.366Z,87.82
2022-08-26T00:41:38.325Z,88.42
2022-08-26T00:44:06.110Z,88.44
2022-08-26T00:46:37.432Z,88.25
2022-08-26T00:49:12.164Z,87.78
2022-08-26T00:51:52.823Z,88.18
2022-08-26T00:54:23.064Z,88.45
2022-08-26T00:57:00.421Z,88.20
2022-08-26T00:59:32.643Z,88.36
2022-08-26T01:02:02.799Z,88.36
2022-08-26T01:04:32.183Z,88.66
2022-08-26T01:06:59.554Z,88.64
2022-08-26T01:09:27.185Z,88.63
2022-08-26T01:11:57.802Z,89.17
2022-08-26T01:14:28.760Z,89.07
2022-08-26T01:16:55.751Z,89.12
2022-08-26T01:19:32.043Z,89.70
2022-08-26T01:22:19.028Z,90.33
2022-08-26T01:24:47.482Z,90.54
2022-08-26T01:27:18.721Z,89.99
2022-08-26T01:29:49.058Z,89.93
2022-08-26T01:32:19.851Z,90.17
2022-08-26T01:34:47.723Z,89.97
2022-08-26T01:37:19.252Z,89.54
2022-08-26T01:39:50.437Z,89.22
2022-08-26T01:42:21.202Z,89.53
2022-08-26T01:45:09.971Z,89.96
2022-08-26T01:47:38.087Z,90.11
2022-08-26T01:50:10.873Z,89.84
2022-08-26T01:52:45.274Z,89.64
2022-08-26T01:55:32.454Z,89.58
2022-08-26T01:58:08.044Z,90.01
2022-08-26T02:00:36.410Z,89.90
2022-08-26T02:03:17.945Z,89.78
2022-08-26T02:05:57.609Z,88.14
2022-08-26T02:08:32.898Z,88.02
2022-08-26T02:11:00.042Z,88.76
2022-08-26T02:13:30.328Z,89.09
2022-08-26T02:15:58.542Z,89.51
2022-08-26T02:18:26.850Z,89.51
2022-08-26T02:20:56.174Z,88.73
2022-08-26T02:23:24.500Z,88.71
2022-08-26T02:26:12.199Z,88.15
2022-08-26T02:28:58.567Z,87.46
2022-08-26T02:31:25.627Z,88.14
2022-08-26T02:33:52.532Z,88.60
2022-08-26T02:36:28.435Z,88.61
2022-08-26T02:38:55.831Z,88.02
2022-08-26T02:41:23.472Z,88.29
2022-08-26T02:43:51.626Z,87.83
2022-08-26T02:46:27.613Z,87.72
2022-08-26T02:48:55.183Z,88.06
2022-08-26T02:51:22.029Z,88.40
2022-08-26T02:53:49.346Z,87.74
2022-08-26T02:56:16.185Z,87.83
2022-08-26T02:58:43.135Z,87.70
2022-08-26T03:01:21.321Z,87.60
2022-08-26T03:03:49.027Z,87.68
2022-08-26T03:06:17.089Z,87.89
2022-08-26T03:08:44.078Z,87.49
2022-08-26T03:11:11.547Z,87.63
2022-08-26T03:13:39.271Z,87.71
2022-08-26T03:16:07.192Z,87.82
2022-08-26T03:18:34.253Z,87.59
2022-08-26T03:21:11.020Z,87.34
2022-08-26T03:23:39.784Z,86.62
2022-08-26T03:26:08.230Z,86.69
2022-08-26T03:28:57.767Z,86.35
2022-08-26T03:31:25.593Z,86.73
2022-08-26T03:33:55.590Z,87.44
2022-08-26T03:36:25.504Z,87.74
2022-08-26T03:38:52.823Z,88.50
2022-08-26T03:41:22.622Z,88.51
2022-08-26T03:43:51.067Z,88.03
2022-08-26T03:46:21.047Z,88.20
2022-08-26T03:48:48.090Z,88.18
2022-08-26T03:51:19.982Z,88.85
2022-08-26T03:53:48.415Z,89.29
2022-08-26T03:56:15.509Z,88.93
2022-08-26T03:58:44.744Z,88.79
2022-08-26T04:01:13.787Z,88.99
2022-08-26T04:04:00.288Z,89.29
2022-08-26T04:06:38.160Z,89.30
2022-08-26T04:09:08.319Z,88.72
2022-08-26T04:11:38.529Z,88.84
2022-08-26T04:14:09.695Z,88.08
2022-08-26T04:16:37.200Z,88.39
2022-08-26T04:19:04.395Z,88.86
2022-08-26T04:21:31.456Z,89.12
2022-08-26T04:23:58.437Z,88.78
2022-08-26T04:26:26.031Z,88.71
2022-08-26T04:28:55.679Z,89.58
2022-08-26T04:31:22.812Z,89.70
2022-08-26T04:33:50.943Z,89.59
2022-08-26T04:36:19.934Z,89.08
2022-08-26T04:38:47.884Z,88.96
2022-08-26T04:41:17.004Z,88.79
2022-08-26T04:43:45.583Z,88.86
2022-08-26T04:46:16.461Z,88.58
2022-08-26T04:48:43.395Z,88.70
2022-08-26T04:51:11.232Z,88.69
2022-08-26T04:53:38.366Z,88.69
2022-08-26T04:56:05.382Z,88.64
2022-08-26T04:58:32.826Z,88.42
2022-08-26T05:00:59.928Z,88.36
2022-08-26T05:03:30.492Z,88.67
2022-08-26T05:05:58.826Z,88.74
2022-08-26T05:08:26.215Z,88.79
2022-08-26T05:10:56.539Z,88.72
2022-08-26T05:13:26.393Z,88.56
2022-08-26T05:15:54.436Z,88.92
2022-08-26T05:18:24.459Z,89.20
2022-08-26T05:20:54.038Z,89.53
2022-08-26T05:23:23.091Z,89.04
2022-08-26T05:25:57.088Z,88.63
2022-08-26T05:28:27.128Z,88.84
2022-08-26T05:30:55.707Z,88.41
2022-08-26T05:33:23.167Z,88.64
2022-08-26T05:35:50.496Z,88.98
2022-08-26T05:38:20.213Z,89.46
2022-08-26T05:40:52.886Z,89.72
2022-08-26T05:43:20.761Z,89.21
2022-08-26T05:45:50.527Z,89.46
2022-08-26T05:48:24.198Z,89.41
2022-08-26T05:50:53.143Z,89.61
2022-08-26T05:53:22.225Z,88.88
2022-08-26T05:55:53.100Z,89.03
2022-08-26T05:58:21.871Z,89.48
2022-08-26T06:01:10.756Z,89.58
2022-08-26T06:03:40.035Z,89.40
2022-08-26T06:06:13.697Z,89.30
2022-08-26T06:08:41.135Z,89.11
2022-08-26T06:11:18.297Z,89.25
2022-08-26T06:13:46.611Z,88.07
2022-08-26T06:16:17.468Z,88.21
2022-08-26T06:18:47.171Z,88.26
2022-08-26T06:21:20.465Z,87.99
2022-08-26T06:24:08.011Z,87.83
2022-08-26T06:26:36.074Z,87.72
2022-08-26T06:29:05.014Z,88.22
2022-08-26T06:31:36.794Z,87.90
2022-08-26T06:34:10.356Z,87.97
2022-08-26T06:36:39.594Z,88.33
2022-08-26T06:39:10.153Z,87.78
2022-08-26T06:41:42.769Z,84.12
2022-08-26T06:44:10.495Z,84.33
2022-08-26T06:46:38.162Z,84.30
2022-08-26T06:49:05.751Z,84.24
2022-08-26T06:51:36.350Z,84.04
2022-08-26T06:54:05.224Z,83.59
2022-08-26T06:56:41.048Z,83.30
2022-08-26T06:59:09.963Z,83.38
2022-08-26T07:01:45.047Z,82.30
2022-08-26T07:04:15.464Z,82.28
2022-08-26T07:06:49.086Z,83.25
2022-08-26T07:09:17.033Z,83.46
2022-08-26T07:11:45.067Z,83.15
2022-08-26T07:14:12.779Z,82.85
2022-08-26T07:16:41.386Z,82.33
2022-08-26T07:19:10.624Z,81.98
2022-08-26T07:21:40.519Z,81.78
2022-08-26T07:24:08.194Z,82.14
2022-08-26T07:26:35.083Z,82.40
2022-08-26T07:29:02.452Z,82.65
2022-08-26T07:31:42.213Z,82.25
2022-08-26T07:34:11.071Z,80.08
2022-08-26T07:36:38.309Z,81.15
2022-08-26T07:39:05.982Z,81.80
2022-08-26T07:41:33.745Z,80.51
2022-08-26T07:44:01.054Z,78.02
2022-08-26T07:46:30.321Z,77.64
2022-08-26T07:48:58.474Z,77.03
2022-08-26T07:51:27.035Z,78.50
2022-08-26T07:53:54.949Z,78.15
2022-08-26T07:56:23.523Z,77.65
2022-08-26T07:58:54.212Z,75.45
2022-08-26T08:01:23.880Z,75.50
2022-08-26T08:03:52.247Z,74.71
2022-08-26T08:06:27.221Z,74.79
2022-08-26T08:08:58.319Z,73.92
2022-08-26T08:11:27.503Z,73.53
2022-08-26T08:13:56.506Z,73.84
2022-08-26T08:16:32.240Z,74.30
2022-08-26T08:19:01.397Z,74.57
2022-08-26T08:21:30.871Z,75.29
2022-08-26T08:23:58.263Z,75.97
2022-08-26T08:26:26.541Z,76.30
2022-08-26T08:28:57.783Z,76.76
2022-08-26T08:31:55.780Z,76.58
2022-08-26T08:34:18.326Z,76.23
2022-08-26T08:36:46.506Z,76.35
2022-08-26T08:39:14.288Z,76.62
2022-08-26T08:42:06.664Z,76.18
2022-08-26T08:44:34.126Z,75.73
2022-08-26T08:47:28.247Z,75.87
2022-08-26T08:50:01.001Z,76.23
2022-08-26T08:52:35.628Z,75.93
2022-08-26T08:55:06.170Z,75.42
2022-08-26T08:58:13.556Z,75.31
2022-08-26T09:00:54.598Z,75.49
2022-08-26T09:04:12.534Z,74.97
2022-08-26T09:06:46.673Z,74.96
2022-08-26T09:09:55.587Z,73.32
2022-08-26T09:12:29.501Z,73.43
2022-08-26T09:15:16.686Z,73.96
2022-08-26T09:17:49.063Z,74.20
2022-08-26T09:20:33.651Z,72.28
2022-08-26T09:23:00.590Z,71.87
2022-08-26T09:25:28.088Z,72.15
2022-08-26T09:27:55.265Z,72.42
2022-08-26T09:30:31.323Z,71.32
2022-08-26T09:33:10.351Z,70.58
2022-08-26T09:35:46.907Z,70.16
2022-08-26T09:38:34.023Z,70.26
2022-08-26T09:41:05.182Z,69.20
2022-08-26T09:43:32.333Z,69.78
2022-08-26T09:46:22.817Z,68.54
2022-08-26T09:48:53.051Z,67.34
2022-08-26T09:51:26.669Z,65.11
2022-08-26T09:53:56.944Z,65.00
2022-08-26T09:56:23.713Z,65.18
2022-08-26T09:58:50.925Z,64.90
2022-08-26T10:01:23.755Z,65.74
2022-08-26T10:03:51.743Z,64.61
2022-08-26T10:06:20.929Z,65.25
2022-08-26T10:08:59.226Z,62.75
2022-08-26T10:11:50.253Z,61.38
2022-08-26T10:14:46.666Z,60.66
2022-08-26T10:17:30.779Z,62.59
2022-08-26T10:20:01.578Z,61.44
2022-08-26T10:22:47.768Z,61.00
2022-08-26T10:25:22.200Z,60.96
2022-08-26T10:28:12.205Z,60.34
2022-08-26T10:30:51.258Z,60.36
2022-08-26T10:33:18.814Z,61.68
2022-08-26T10:35:53.000Z,61.18
2022-08-26T10:38:29.687Z,60.10
2022-08-26T10:41:13.962Z,60.29
2022-08-26T10:43:51.629Z,59.27
2022-08-26T10:46:27.276Z,59.38
2022-08-26T10:49:06.930Z,58.78
2022-08-26T10:51:42.246Z,59.94
2022-08-26T10:54:20.292Z,59.37
2022-08-26T10:57:17.467Z,58.91
2022-08-26T11:00:29.718Z,58.46
2022-08-26T11:03:35.491Z,58.30
2022-08-26T11:06:28.224Z,58.26
2022-08-26T11:09:07.207Z,57.49
2022-08-26T11:11:39.942Z,55.80
2022-08-26T11:14:29.859Z,56.66
2022-08-26T11:17:00.401Z,56.73
2022-08-26T11:19:56.767Z,57.04
2022-08-26T11:22:28.639Z,56.27
2022-08-26T11:25:09.497Z,55.56
2022-08-26T11:27:38.632Z,55.01
2022-08-26T11:30:13.297Z,54.80
2022-08-26T11:32:40.454Z,54.59
2022-08-26T11:35:23.541Z,55.95
2022-08-26T11:37:57.471Z,56.61
2022-08-26T11:40:31.185Z,55.99
2022-08-26T11:43:19.672Z,55.80
2022-08-26T11:46:09.245Z,55.42
2022-08-26T11:48:44.532Z,55.42
2022-08-26T11:51:20.561Z,55.55
2022-08-26T11:53:47.702Z,55.39
2022-08-26T11:56:28.809Z,54.06
2022-08-26T11:59:00.900Z,53.73
2022-08-26T12:01:36.205Z,53.13
2022-08-26T12:04:08.646Z,52.96
2022-08-26T12:06:46.728Z,52.46
2022-08-26T12:09:52.667Z,51.93
2022-08-26T12:12:28.523Z,51.47
2022-08-26T12:15:19.921Z,52.03
2022-08-26T12:17:54.415Z,51.81
2022-08-26T12:20:48.416Z,51.76
2022-08-26T12:23:37.172Z,51.39
2022-08-26T12:26:06.280Z,51.12
2022-08-26T12:28:34.003Z,52.36
2022-08-26T12:31:05.866Z,51.75
2022-08-26T12:33:37.018Z,50.69
2022-08-26T12:36:18.688Z,50.63
2022-08-26T12:38:46.078Z,51.26
2022-08-26T12:41:12.906Z,54.20
2022-08-26T12:43:45.590Z,53.00
2022-08-26T12:46:27.863Z,52.50
2022-08-26T12:48:55.305Z,51.49
2022-08-26T12:51:29.024Z,50.98
2022-08-26T12:53:57.007Z,49.58
2022-08-26T12:56:38.977Z,50.14
2022-08-26T12:59:18.062Z,49.43
2022-08-26T13:01:46.987Z,49.22
2022-08-26T13:04:33.929Z,48.42
2022-08-26T13:07:33.153Z,48.55
2022-08-26T13:10:01.127Z,49.32
2022-08-26T13:12:37.555Z,50.21
2022-08-26T13:15:08.861Z,50.45
2022-08-26T13:17:36.167Z,49.87
2022-08-26T13:20:04.429Z,49.06
2022-08-26T13:22:32.017Z,48.09
2022-08-26T13:25:04.172Z,48.07
2022-08-26T13:27:30.968Z,48.24
2022-08-26T13:29:59.197Z,47.26
2022-08-26T13:32:27.470Z,46.48
2022-08-26T13:35:06.773Z,47.21
2022-08-26T13:37:34.271Z,46.37
2022-08-26T13:40:01.858Z,46.33
2022-08-26T13:42:29.581Z,45.45
2022-08-26T13:45:04.554Z,45.00
2022-08-26T13:47:31.670Z,45.30
2022-08-26T13:49:58.585Z,45.49
2022-08-26T13:52:30.616Z,46.83
2022-08-26T13:55:05.010Z,46.66
2022-08-26T13:57:32.248Z,48.34
2022-08-26T14:00:02.122Z,48.34
2022-08-26T14:02:29.095Z,47.47
2022-08-26T14:05:04.654Z,45.26
2022-08-26T14:07:31.556Z,45.58
2022-08-26T14:09:58.337Z,44.46
2022-08-26T14:12:25.394Z,44.10
2022-08-26T14:15:04.106Z,44.03
2022-08-26T14:17:32.625Z,44.49
2022-08-26T14:19:59.592Z,44.93
2022-08-26T14:22:26.419Z,44.93
2022-08-26T14:25:03.874Z,44.35
2022-08-26T14:27:32.918Z,44.47
2022-08-26T14:29:59.782Z,44.02
2022-08-26T14:32:29.023Z,44.37
2022-08-26T14:35:10.771Z,44.81
2022-08-26T14:37:37.586Z,43.72
2022-08-26T14:40:06.422Z,44.12
2022-08-26T14:42:34.504Z,44.26
2022-08-26T14:45:07.933Z,44.27
2022-08-26T14:47:34.848Z,43.38
2022-08-26T14:50:01.863Z,45.71
2022-08-26T14:52:29.876Z,45.36
2022-08-26T14:55:04.403Z,46.21
2022-08-26T14:57:31.295Z,46.46
2022-08-26T14:59:58.115Z,45.27
2022-08-26T15:02:33.507Z,45.58
2022-08-26T15:05:05.507Z,45.20
2022-08-26T15:07:32.259Z,45.11
2022-08-26T15:09:59.102Z,44.62
2022-08-26T15:12:26.200Z,43.58
2022-08-26T15:15:04.912Z,44.07
2022-08-26T15:17:31.726Z,44.68
2022-08-26T15:19:58.663Z,44.22
2022-08-26T15:22:25.779Z,44.88
2022-08-26T15:25:08.408Z,46.03
2022-08-26T15:27:35.447Z,45.90
2022-08-26T15:30:09.065Z,46.60
2022-08-26T15:32:36.171Z,45.95
2022-08-26T15:35:09.053Z,45.42
2022-08-26T15:37:36.841Z,46.66
2022-08-26T15:40:05.305Z,47.16
2022-08-26T15:42:32.226Z,46.93
2022-08-26T15:45:04.088Z,47.54
2022-08-26T15:47:31.239Z,47.19
2022-08-26T15:50:02.341Z,46.16
2022-08-26T15:52:29.174Z,45.91
2022-08-26T15:57:50.831Z,46.00
2022-08-26T16:00:17.865Z,46.01
2022-08-26T16:02:44.709Z,45.88
2022-08-26T16:05:11.513Z,46.46
2022-08-26T16:07:38.306Z,45.06
2022-08-26T16:10:05.424Z,45.42
2022-08-26T16:12:32.169Z,45.01
2022-08-26T16:15:02.663Z,44.98
2022-08-26T16:17:29.431Z,46.17
2022-08-26T16:19:56.527Z,46.89
2022-08-26T16:22:23.498Z,46.51
2022-08-26T16:24:59.370Z,45.76
2022-08-26T16:27:26.324Z,45.52
2022-08-26T16:29:53.166Z,46.14
2022-08-26T16:32:19.938Z,45.96
2022-08-26T16:34:56.582Z,45.75
2022-08-26T16:37:23.931Z,46.31
2022-08-26T16:39:50.856Z,46.31
2022-08-26T16:42:17.699Z,46.29
2022-08-26T16:44:44.686Z,46.45
2022-08-26T16:47:13.263Z,46.14
2022-08-26T16:49:41.383Z,46.04
2022-08-26T16:52:09.752Z,46.24
2022-08-26T16:54:38.346Z,47.09
2022-08-26T16:57:05.459Z,47.16
2022-08-26T16:59:33.572Z,47.05
2022-08-26T17:02:00.922Z,48.59
2022-08-26T17:04:29.141Z,47.25
2022-08-26T17:06:56.102Z,47.73
2022-08-26T17:09:22.916Z,48.14
2022-08-26T17:11:50.480Z,48.87
2022-08-26T17:14:17.350Z,50.03
2022-08-26T17:16:45.159Z,49.24
2022-08-26T17:19:12.658Z,49.47
2022-08-26T17:21:40.080Z,49.97
2022-08-26T17:24:07.163Z,50.24
2022-08-26T17:26:34.524Z,49.01
2022-08-26T17:29:01.394Z,49.87
2022-08-26T17:31:28.221Z,50.34
2022-08-26T17:33:55.715Z,49.83
2022-08-26T17:36:27.394Z,49.91
2022-08-26T17:38:55.300Z,50.05
2022-08-26T17:41:22.336Z,49.70
2022-08-26T17:43:49.331Z,49.60
2022-08-26T17:46:16.142Z,50.71
2022-08-26T17:48:42.995Z,49.61
2022-08-26T17:51:15.293Z,49.75
2022-08-26T17:53:42.685Z,49.77
2022-08-26T17:56:13.670Z,49.58
2022-08-26T17:58:40.950Z,49.58
2022-08-26T18:01:15.130Z,49.27
2022-08-26T18:03:42.066Z,49.52
2022-08-26T18:06:13.528Z,49.61
2022-08-26T18:08:41.694Z,49.90
2022-08-26T18:11:15.062Z,49.92
2022-08-26T18:13:47.043Z,49.96
2022-08-26T18:16:15.920Z,49.66
2022-08-26T18:18:43.466Z,49.89
2022-08-26T18:21:20.142Z,50.07
2022-08-26T18:23:48.471Z,50.44
2022-08-26T18:26:21.331Z,50.68
2022-08-26T18:28:48.716Z,50.44
2022-08-26T18:31:16.327Z,50.86
2022-08-26T18:33:43.413Z,51.13
2022-08-26T18:36:19.410Z,50.80
2022-08-26T18:38:47.514Z,50.96
2022-08-26T18:41:20.921Z,50.91
2022-08-26T18:43:49.108Z,50.88
2022-08-26T18:46:17.119Z,50.61
2022-08-26T18:48:44.409Z,50.80
2022-08-26T18:51:32.381Z,50.87
2022-08-26T18:54:12.298Z,50.85
2022-08-26T18:56:40.970Z,51.01
2022-08-26T18:59:08.686Z,51.20
2022-08-26T19:01:38.273Z,50.94
2022-08-26T19:04:06.937Z,50.86
2022-08-26T19:06:35.888Z,51.36
2022-08-26T19:09:06.139Z,51.42
2022-08-26T19:11:37.623Z,51.12
2022-08-26T19:14:13.858Z,51.16
2022-08-26T19:16:43.073Z,51.58
2022-08-26T19:19:10.804Z,51.63
2022-08-26T19:21:38.532Z,51.84
2022-08-26T19:24:12.670Z,52.58
2022-08-26T19:26:39.926Z,52.07
2022-08-26T19:29:07.234Z,51.58
2022-08-26T19:31:34.507Z,52.07
2022-08-26T19:34:01.934Z,51.66
2022-08-26T19:36:29.607Z,52.13
2022-08-26T19:38:57.210Z,52.11
2022-08-26T19:41:36.531Z,51.91
2022-08-26T19:44:09.014Z,51.79
2022-08-26T19:49:24.438Z,52.40
2022-08-26T19:51:52.038Z,52.47
2022-08-26T19:54:19.036Z,52.95
2022-08-26T19:56:49.609Z,53.18
2022-08-26T19:59:17.716Z,52.46
2022-08-26T20:01:45.146Z,52.66
2022-08-26T20:04:12.769Z,53.00
2022-08-26T20:06:39.953Z,53.03
2022-08-26T20:09:07.469Z,53.52
2022-08-26T20:11:34.354Z,54.26
2022-08-26T20:14:01.318Z,54.66
2022-08-26T20:16:28.229Z,54.30
2022-08-26T20:19:13.952Z,55.23
2022-08-26T20:21:41.525Z,56.03
2022-08-26T20:24:13.214Z,55.31
2022-08-26T20:26:41.738Z,55.75
2022-08-26T20:29:10.570Z,55.05
2022-08-26T20:31:38.142Z,55.21
2022-08-26T20:34:06.041Z,55.90
2022-08-26T20:36:33.946Z,55.17
2022-08-26T20:39:01.014Z,55.45
2022-08-26T20:41:28.832Z,55.21
2022-08-26T20:43:56.143Z,55.37
2022-08-26T20:46:24.876Z,55.53
2022-08-26T20:48:53.299Z,56.17
2022-08-26T20:51:21.217Z,56.40
2022-08-26T20:53:48.325Z,56.32
2022-08-26T20:56:16.595Z,56.59
2022-08-26T20:58:43.699Z,56.52
2022-08-26T21:01:27.153Z,56.69
2022-08-26T21:03:57.323Z,57.71
2022-08-26T21:06:24.468Z,57.74
2022-08-26T21:08:51.672Z,58.57
2022-08-26T21:11:20.947Z,58.60
2022-08-26T21:14:04.360Z,58.50
2022-08-26T21:16:36.603Z,58.46
2022-08-26T21:19:06.146Z,58.60
2022-08-26T21:21:33.221Z,58.55
2022-08-26T21:24:00.984Z,58.37
2022-08-26T21:26:33.241Z,58.03
2022-08-26T21:29:01.803Z,57.92
2022-08-26T21:31:29.988Z,57.77
2022-08-26T21:33:57.031Z,57.78
2022-08-26T21:36:24.742Z,57.33
2022-08-26T21:38:51.577Z,57.40
2022-08-26T21:41:22.238Z,57.67
2022-08-26T21:43:51.469Z,57.99
2022-08-26T21:46:22.494Z,58.50
2022-08-26T21:48:58.666Z,58.53
2022-08-26T21:51:28.647Z,59.24
2022-08-26T21:53:57.557Z,60.00
2022-08-26T21:56:27.422Z,59.98
2022-08-26T21:58:55.930Z,59.46
2022-08-26T22:01:25.426Z,59.61
2022-08-26T22:03:53.127Z,58.70
2022-08-26T22:06:24.782Z,59.29
2022-08-26T22:08:53.025Z,59.40
2022-08-26T22:11:20.504Z,60.46
2022-08-26T22:13:48.721Z,60.28
2022-08-26T22:16:16.028Z,59.74
2022-08-26T22:18:45.923Z,60.06
2022-08-26T22:21:20.840Z,59.96
2022-08-26T22:23:48.035Z,60.44
2022-08-26T22:26:25.845Z,61.37
2022-08-26T22:28:58.519Z,61.34
2022-08-26T22:31:27.985Z,60.74
2022-08-26T22:34:01.523Z,61.51
2022-08-26T22:36:29.905Z,61.57
2022-08-26T22:38:59.104Z,62.03
2022-08-26T22:41:26.382Z,62.33
2022-08-26T22:43:53.298Z,62.10
2022-08-26T22:46:25.515Z,62.53
2022-08-26T22:48:54.213Z,62.25
2022-08-26T22:51:22.358Z,61.93
2022-08-26T22:53:49.865Z,62.08
2022-08-26T22:56:18.654Z,61.91
2022-08-26T22:58:45.790Z,62.40
2022-08-26T23:01:13.155Z,62.29
2022-08-26T23:03:40.241Z,62.47
2022-08-26T23:06:13.501Z,62.87
2022-08-26T23:08:42.107Z,63.08
2022-08-26T23:11:11.350Z,63.32
2022-08-26T23:13:38.826Z,63.46
2022-08-26T23:16:09.618Z,63.40
2022-08-26T23:18:36.832Z,63.48
2022-08-26T23:21:03.808Z,63.84
2022-08-26T23:23:31.321Z,64.19
2022-08-26T23:25:58.592Z,64.11
2022-08-26T23:28:25.945Z,64.38
2022-08-26T23:30:53.868Z,65.26
2022-08-26T23:33:21.354Z,65.30
2022-08-26T23:35:48.469Z,65.06
2022-08-26T23:38:17.184Z,65.61
2022-08-26T23:40:44.576Z,66.08
2022-08-26T23:43:16.653Z,66.86
2022-08-26T23:45:44.055Z,66.62
2022-08-26T23:48:11.371Z,66.79
2022-08-26T23:50:56.977Z,66.67
2022-08-26T23:53:24.166Z,66.81
2022-08-26T23:55:52.912Z,67.17
2022-08-26T23:58:21.763Z,68.32
